Time;durP1;ratioP1;P1;durP2;ratioP2;P2;SDS_P1;SDS_P2;PMS_P1;PMS_P2;Temp;Humidity;BMP_temperature;BMP_pressure;BME280_temperature;BME280_humidity;BME280_pressure;Samples;Min_cycle;Max_cycle;Signal;HPM_P1;HPM_P2
2022/11/26 00:01:40;;;;;;;;;;;13.90;63.70;;;;;;5092557;28;19912;-86
2022/11/26 00:04:05;;;;;;;;;;;14.00;63.90;;;;;;5091770;28;20274;-88
2022/11/26 00:06:38;;;;;;;;;;;14.00;64.00;;;;;;5058379;28;19920;-88
2022/11/26 00:09:07;;;;;;;;;;;14.10;63.90;;;;;;5056139;28;20274;-87
2022/11/26 00:11:33;;;;;;;;;;;14.10;64.00;;;;;;5053634;28;19919;-88
2022/11/26 00:13:58;;;;;;;;;;;14.20;64.00;;;;;;5053608;28;19934;-88
2022/11/26 00:16:25;;;;;;;;;;;14.20;64.00;;;;;;5071174;28;20422;-89
2022/11/26 00:18:50;;;;;;;;;;;14.30;64.00;;;;;;5071529;28;19917;-89
2022/11/26 00:21:19;;;;;;;;;;;14.30;63.90;;;;;;5070888;28;19925;-88
2022/11/26 00:23:45;;;;;;;;;;;14.30;63.80;;;;;;5050840;28;19966;-88
2022/11/26 00:26:18;;;;;;;;;;;14.30;63.70;;;;;;5050784;28;20340;-88
2022/11/26 00:28:48;;;;;;;;;;;14.30;63.50;;;;;;5051060;28;20011;-87
2022/11/26 00:31:14;;;;;;;;;;;14.20;63.30;;;;;;5049723;28;20336;-87
2022/11/26 00:33:40;;;;;;;;;;;14.20;63.20;;;;;;5039833;28;19991;-87
2022/11/26 00:36:12;;;;;;;;;;;14.20;63.30;;;;;;5070343;28;20380;-87
2022/11/26 00:38:38;;;;;;;;;;;14.20;63.20;;;;;;5087660;28;19943;-88
2022/11/26 00:41:05;;;;;;;;;;;14.10;62.90;;;;;;5053359;28;19916;-88
2022/11/26 00:43:30;;;;;;;;;;;14.00;62.90;;;;;;5054143;28;19924;-88
2022/11/26 00:45:56;;;;;;;;;;;14.00;62.90;;;;;;5067150;28;20318;-89
2022/11/26 00:48:21;;;;;;;;;;;14.00;63.00;;;;;;5068928;28;19921;-88
2022/11/26 00:50:48;;;;;;;;;;;14.00;63.10;;;;;;5056008;28;20400;-88
2022/11/26 00:53:15;;;;;;;;;;;14.00;63.10;;;;;;5050212;28;19925;-88
2022/11/26 00:55:42;;;;;;;;;;;13.90;62.90;;;;;;5052713;28;19917;-88
2022/11/26 00:58:18;;;;;;;;;;;13.90;62.80;;;;;;5069253;28;19920;-88
2022/11/26 01:00:43;;;;;;;;;;;13.90;62.90;;;;;;5074941;28;19917;-87
2022/11/26 01:03:09;;;;;;;;;;;13.80;63.10;;;;;;5078461;28;20314;-88
2022/11/26 01:05:35;;;;;;;;;;;13.80;63.10;;;;;;5074386;28;19948;-88
2022/11/26 01:08:11;;;;;;;;;;;13.80;63.10;;;;;;5075073;28;19920;-87
2022/11/26 01:10:36;;;;;;;;;;;13.90;63.20;;;;;;5073331;28;19913;-88
2022/11/26 01:13:02;;;;;;;;;;;13.90;63.20;;;;;;5056050;28;20389;-87
2022/11/26 01:15:27;;;;;;;;;;;13.90;63.20;;;;;;5056954;28;19916;-88
2022/11/26 01:17:53;;;;;;;;;;;14.00;63.30;;;;;;5074568;28;19916;-89
2022/11/26 01:20:29;;;;;;;;;;;14.00;63.40;;;;;;5057208;28;19917;-88
2022/11/26 01:22:56;;;;;;;;;;;14.10;63.40;;;;;;5074034;28;19927;-88
2022/11/26 01:25:22;;;;;;;;;;;14.10;63.50;;;;;;5055847;28;20304;-87
2022/11/26 01:27:48;;;;;;;;;;;14.10;63.50;;;;;;5075600;28;19928;-88
2022/11/26 01:30:34;;;;;;;;;;;14.20;63.50;;;;;;5054889;28;20287;-88
2022/11/26 01:32:59;;;;;;;;;;;14.20;63.40;;;;;;5073778;28;19923;-87
2022/11/26 01:35:25;;;;;;;;;;;14.20;63.40;;;;;;5096047;28;20014;-88
2022/11/26 01:37:51;;;;;;;;;;;14.20;63.30;;;;;;5063109;28;19919;-88
2022/11/26 01:40:16;;;;;;;;;;;14.20;63.40;;;;;;5073358;28;19920;-89
2022/11/26 01:42:45;;;;;;;;;;;14.30;63.50;;;;;;5061504;28;19913;-89
2022/11/26 01:45:16;;;;;;;;;;;14.30;63.40;;;;;;5044538;28;19973;-88
2022/11/26 01:47:42;;;;;;;;;;;14.30;63.30;;;;;;5079136;28;19920;-88
2022/11/26 01:50:26;;;;;;;;;;;14.30;63.30;;;;;;5054959;28;19913;-87
2022/11/26 01:52:52;;;;;;;;;;;14.30;63.30;;;;;;5055038;28;19960;-88
2022/11/26 01:55:18;;;;;;;;;;;14.30;63.20;;;;;;5051812;28;19922;-86
2022/11/26 01:57:43;;;;;;;;;;;14.30;63.30;;;;;;5049455;28;19917;-87
2022/11/26 02:00:12;;;;;;;;;;;14.40;63.30;;;;;;5053471;28;20498;-88
2022/11/26 02:02:37;;;;;;;;;;;14.40;63.20;;;;;;5052121;28;19935;-89
2022/11/26 02:05:09;;;;;;;;;;;14.30;63.20;;;;;;5046667;28;19921;-89
2022/11/26 02:07:35;;;;;;;;;;;14.40;63.00;;;;;;5054666;28;19952;-88
2022/11/26 02:10:01;;;;;;;;;;;14.40;63.00;;;;;;5055284;28;19963;-87
2022/11/26 02:12:27;;;;;;;;;;;14.30;62.90;;;;;;5046657;28;20202;-88
2022/11/26 02:14:53;;;;;;;;;;;14.40;62.80;;;;;;5053433;28;19970;-88
2022/11/26 02:17:19;;;;;;;;;;;14.30;62.70;;;;;;5056520;28;19909;-88
2022/11/26 02:20:03;;;;;;;;;;;14.30;62.80;;;;;;5076158;28;19999;-88
2022/11/26 02:22:47;;;;;;;;;;;14.30;62.80;;;;;;5072091;28;19916;-88
2022/11/26 02:25:18;;;;;;;;;;;14.30;62.80;;;;;;5054450;28;19928;-88
2022/11/26 02:27:47;;;;;;;;;;;14.20;62.80;;;;;;5072397;28;20327;-88
2022/11/26 02:30:13;;;;;;;;;;;14.20;62.70;;;;;;5051996;28;19924;-87
2022/11/26 02:32:42;;;;;;;;;;;14.20;62.90;;;;;;5056264;28;20007;-88
2022/11/26 02:35:19;;;;;;;;;;;14.20;63.00;;;;;;5091640;28;20027;-88
2022/11/26 02:37:53;;;;;;;;;;;14.20;62.90;;;;;;5044088;28;19921;-88
2022/11/26 02:40:19;;;;;;;;;;;14.20;62.90;;;;;;5053217;28;20047;-88
2022/11/26 02:42:45;;;;;;;;;;;14.20;62.80;;;;;;5034832;28;20422;-88
2022/11/26 02:45:12;;;;;;;;;;;14.20;62.90;;;;;;5043637;28;19920;-88
2022/11/26 02:47:39;;;;;;;;;;;14.20;62.80;;;;;;5044778;28;20078;-88
2022/11/26 02:50:11;;;;;;;;;;;14.20;62.70;;;;;;5071516;28;19923;-88
2022/11/26 02:52:38;;;;;;;;;;;14.20;62.70;;;;;;5053960;28;20057;-89
2022/11/26 02:55:05;;;;;;;;;;;14.20;62.70;;;;;;5061813;28;19927;-88
2022/11/26 02:57:33;;;;;;;;;;;14.20;62.60;;;;;;5070391;28;19974;-89
2022/11/26 02:59:58;;;;;;;;;;;14.20;62.60;;;;;;5050807;28;19988;-88
2022/11/26 03:02:28;;;;;;;;;;;14.10;62.50;;;;;;5043405;28;20604;-88
2022/11/26 03:04:58;;;;;;;;;;;14.10;62.50;;;;;;5035204;28;19917;-89
2022/11/26 03:07:25;;;;;;;;;;;14.00;62.50;;;;;;5039671;28;19925;-89
2022/11/26 03:09:55;;;;;;;;;;;14.00;62.60;;;;;;5036645;28;20350;-88
2022/11/26 03:12:21;;;;;;;;;;;14.00;62.70;;;;;;5059413;28;19912;-89
2022/11/26 03:14:46;;;;;;;;;;;14.00;62.70;;;;;;5049953;28;19928;-88
2022/11/26 03:17:12;;;;;;;;;;;14.10;62.60;;;;;;5063316;28;19916;-88
2022/11/26 03:19:40;;;;;;;;;;;14.00;62.70;;;;;;5045647;28;19956;-88
2022/11/26 03:22:06;;;;;;;;;;;14.10;62.70;;;;;;5070462;28;19996;-87
2022/11/26 03:24:31;;;;;;;;;;;14.10;62.60;;;;;;5053166;28;20004;-88
2022/11/26 03:26:57;;;;;;;;;;;14.10;62.50;;;;;;5071786;28;19923;-88
2022/11/26 03:29:22;;;;;;;;;;;14.10;62.40;;;;;;5071550;28;20460;-88
2022/11/26 03:31:48;;;;;;;;;;;14.10;62.20;;;;;;5052888;28;20415;-88
2022/11/26 03:34:14;;;;;;;;;;;14.00;62.10;;;;;;5082412;28;19918;-88
2022/11/26 03:36:39;;;;;;;;;;;14.00;61.90;;;;;;5062926;28;19930;-88
2022/11/26 03:39:05;;;;;;;;;;;13.90;61.90;;;;;;5054027;28;19918;-88
2022/11/26 03:41:30;;;;;;;;;;;13.80;62.00;;;;;;5052091;28;19938;-89
2022/11/26 03:43:59;;;;;;;;;;;13.80;62.20;;;;;;5034610;28;19913;-88
2022/11/26 03:46:24;;;;;;;;;;;13.80;62.20;;;;;;5072883;28;19931;-88
2022/11/26 03:48:50;;;;;;;;;;;13.80;62.30;;;;;;5052947;28;19921;-87
2022/11/26 03:51:16;;;;;;;;;;;13.80;62.40;;;;;;5054160;28;19916;-87
2022/11/26 03:53:41;;;;;;;;;;;13.80;62.40;;;;;;5053021;28;19974;-88
2022/11/26 03:56:09;;;;;;;;;;;13.80;62.50;;;;;;5053462;28;20007;-87
2022/11/26 03:58:35;;;;;;;;;;;13.80;62.50;;;;;;5056039;28;20003;-88
2022/11/26 04:01:06;;;;;;;;;;;13.80;62.60;;;;;;5053446;28;20422;-88
2022/11/26 04:03:34;;;;;;;;;;;13.80;62.60;;;;;;5052905;28;19916;-88
2022/11/26 04:05:59;;;;;;;;;;;13.80;62.60;;;;;;5052653;28;19993;-87
2022/11/26 04:08:25;;;;;;;;;;;13.80;62.70;;;;;;5070990;28;19975;-87
2022/11/26 04:10:50;;;;;;;;;;;13.90;62.80;;;;;;5052798;28;19917;-87
2022/11/26 04:13:16;;;;;;;;;;;13.90;62.80;;;;;;5041718;28;19999;-87
2022/11/26 04:15:41;;;;;;;;;;;13.90;62.80;;;;;;5033888;28;20012;-88
2022/11/26 04:18:07;;;;;;;;;;;14.00;62.80;;;;;;5080564;28;20028;-88
2022/11/26 04:20:32;;;;;;;;;;;14.00;62.60;;;;;;5090298;28;20386;-88
2022/11/26 04:23:00;;;;;;;;;;;14.00;62.40;;;;;;5072910;28;19965;-88
2022/11/26 04:25:26;;;;;;;;;;;13.90;62.50;;;;;;5091055;28;19959;-88
2022/11/26 04:27:52;;;;;;;;;;;14.00;62.70;;;;;;5071761;28;19975;-88
2022/11/26 04:30:17;;;;;;;;;;;14.00;62.70;;;;;;5051310;28;19927;-88
2022/11/26 04:32:43;;;;;;;;;;;14.00;62.80;;;;;;5039132;28;19921;-88
2022/11/26 04:35:09;;;;;;;;;;;14.00;62.70;;;;;;5050421;28;20442;-88
2022/11/26 04:37:34;;;;;;;;;;;14.00;62.70;;;;;;5047124;28;19926;-89
2022/11/26 04:40:03;;;;;;;;;;;14.10;62.70;;;;;;5047066;28;19913;-88
2022/11/26 04:42:28;;;;;;;;;;;14.10;62.70;;;;;;5039946;28;20390;-87
2022/11/26 04:44:54;;;;;;;;;;;14.10;62.70;;;;;;5057022;28;19925;-88
2022/11/26 04:47:19;;;;;;;;;;;14.10;62.70;;;;;;5059689;28;20005;-88
2022/11/26 04:49:45;;;;;;;;;;;14.10;62.70;;;;;;5063365;28;20485;-88
2022/11/26 04:52:13;;;;;;;;;;;14.10;62.80;;;;;;5070119;28;19919;-88
2022/11/26 04:54:38;;;;;;;;;;;14.10;62.60;;;;;;5054944;28;19917;-88
2022/11/26 04:57:04;;;;;;;;;;;14.10;62.60;;;;;;5042207;28;20356;-88
2022/11/26 04:59:30;;;;;;;;;;;14.20;62.60;;;;;;5061577;28;20336;-88
2022/11/26 05:01:55;;;;;;;;;;;14.20;62.40;;;;;;5057616;28;20582;-88
2022/11/26 05:04:21;;;;;;;;;;;14.20;62.60;;;;;;5073676;28;19916;-87
2022/11/26 05:06:46;;;;;;;;;;;14.10;62.40;;;;;;5043211;28;19929;-88
2022/11/26 05:09:12;;;;;;;;;;;14.10;62.40;;;;;;5052668;28;20374;-87
2022/11/26 05:11:37;;;;;;;;;;;14.10;62.40;;;;;;5070307;28;19913;-87
2022/11/26 05:14:03;;;;;;;;;;;14.10;62.50;;;;;;5074678;28;19916;-88
2022/11/26 05:16:28;;;;;;;;;;;14.10;62.40;;;;;;5090638;28;20011;-89
2022/11/26 05:18:57;;;;;;;;;;;14.10;62.50;;;;;;5071595;28;19919;-87
2022/11/26 05:21:23;;;;;;;;;;;14.10;62.50;;;;;;5052895;28;19919;-88
2022/11/26 05:23:48;;;;;;;;;;;14.10;62.40;;;;;;5070349;28;20003;-87
2022/11/26 05:26:14;;;;;;;;;;;14.10;62.50;;;;;;5053069;28;19912;-87
2022/11/26 05:28:39;;;;;;;;;;;14.10;62.50;;;;;;5052503;28;19921;-87
2022/11/26 05:31:05;;;;;;;;;;;14.00;62.50;;;;;;5047429;28;19917;-87
2022/11/26 05:33:33;;;;;;;;;;;14.00;62.40;;;;;;5055291;28;19931;-88
2022/11/26 05:35:59;;;;;;;;;;;14.10;62.40;;;;;;5071208;28;19920;-87
2022/11/26 05:38:29;;;;;;;;;;;14.00;62.50;;;;;;5044299;28;19919;-87
2022/11/26 05:40:55;;;;;;;;;;;14.00;62.40;;;;;;5060686;28;19932;-87
2022/11/26 05:43:20;;;;;;;;;;;14.00;62.30;;;;;;5058834;28;20371;-86
2022/11/26 05:45:46;;;;;;;;;;;14.00;62.40;;;;;;5041955;28;19963;-88
2022/11/26 05:48:11;;;;;;;;;;;14.00;62.50;;;;;;5061331;28;20379;-88
2022/11/26 05:50:39;;;;;;;;;;;14.00;62.50;;;;;;5035834;28;19912;-87
2022/11/26 05:53:05;;;;;;;;;;;14.10;62.40;;;;;;5051374;28;19975;-88
2022/11/26 05:55:30;;;;;;;;;;;14.00;62.50;;;;;;5046767;28;20331;-87
2022/11/26 05:57:56;;;;;;;;;;;14.00;62.40;;;;;;5066883;28;19912;-87
2022/11/26 06:00:22;;;;;;;;;;;14.00;62.50;;;;;;5052754;28;20015;-87
2022/11/26 06:02:47;;;;;;;;;;;14.10;62.40;;;;;;5044746;28;20359;-87
2022/11/26 06:05:13;;;;;;;;;;;14.00;62.50;;;;;;5043243;28;19936;-88
2022/11/26 06:07:38;;;;;;;;;;;14.00;62.60;;;;;;5056788;28;19920;-88
2022/11/26 06:10:09;;;;;;;;;;;14.10;62.50;;;;;;5052656;28;19940;-87
2022/11/26 06:12:35;;;;;;;;;;;14.00;62.50;;;;;;5047164;28;20041;-88
2022/11/26 06:15:00;;;;;;;;;;;14.10;62.30;;;;;;5073430;28;19926;-87
2022/11/26 06:17:26;;;;;;;;;;;14.10;62.40;;;;;;5073408;28;19938;-89
2022/11/26 06:19:51;;;;;;;;;;;14.00;62.40;;;;;;5074719;28;19945;-88
2022/11/26 06:22:17;;;;;;;;;;;14.10;62.50;;;;;;5049978;28;19939;-87
2022/11/26 06:24:43;;;;;;;;;;;14.10;62.50;;;;;;5040588;28;19920;-88
2022/11/26 06:27:08;;;;;;;;;;;14.20;62.60;;;;;;5052710;28;19999;-87
2022/11/26 06:29:34;;;;;;;;;;;14.20;62.60;;;;;;5073199;28;19916;-87
2022/11/26 06:32:00;;;;;;;;;;;14.20;62.60;;;;;;5054159;28;20352;-88
2022/11/26 06:34:25;;;;;;;;;;;14.30;62.40;;;;;;5076600;28;19920;-87
2022/11/26 06:36:51;;;;;;;;;;;14.30;62.40;;;;;;5062989;28;19923;-88
2022/11/26 06:39:16;;;;;;;;;;;14.20;62.30;;;;;;5053330;28;19980;-87
2022/11/26 06:41:42;;;;;;;;;;;14.20;62.40;;;;;;5053117;28;20371;-88
2022/11/26 06:44:07;;;;;;;;;;;14.20;62.50;;;;;;5047278;28;20444;-89
2022/11/26 06:46:34;;;;;;;;;;;14.30;62.40;;;;;;5056447;28;19929;-87
2022/11/26 06:49:01;;;;;;;;;;;14.30;62.50;;;;;;5035197;28;19916;-88
2022/11/26 06:51:26;;;;;;;;;;;14.20;62.50;;;;;;5034688;28;19913;-87
2022/11/26 06:53:52;;;;;;;;;;;14.30;62.30;;;;;;5063823;28;19974;-88
2022/11/26 06:56:18;;;;;;;;;;;14.30;62.30;;;;;;5054004;28;20315;-88
2022/11/26 06:58:45;;;;;;;;;;;14.30;62.50;;;;;;5035177;28;20101;-87
2022/11/26 07:01:13;;;;;;;;;;;14.30;62.50;;;;;;5035367;28;19913;-88
2022/11/26 07:03:38;;;;;;;;;;;14.30;62.70;;;;;;5040415;28;19924;-88
2022/11/26 07:06:04;;;;;;;;;;;14.30;62.70;;;;;;5037869;28;19917;-87
2022/11/26 07:08:39;;;;;;;;;;;14.30;62.70;;;;;;5070221;28;19931;-88
2022/11/26 07:11:04;;;;;;;;;;;14.40;62.50;;;;;;5064002;28;20375;-88
2022/11/26 07:13:30;;;;;;;;;;;14.30;62.30;;;;;;5060657;28;19960;-87
2022/11/26 07:15:59;;;;;;;;;;;14.30;62.30;;;;;;5050363;28;19951;-88
2022/11/26 07:18:25;;;;;;;;;;;14.40;62.40;;;;;;5041359;28;19924;-89
2022/11/26 07:20:51;;;;;;;;;;;14.30;62.30;;;;;;5053722;28;20418;-88
2022/11/26 07:23:16;;;;;;;;;;;14.40;62.50;;;;;;5050834;28;19920;-88
2022/11/26 07:25:42;;;;;;;;;;;14.40;62.50;;;;;;5056870;28;20474;-87
2022/11/26 07:28:07;;;;;;;;;;;14.40;62.40;;;;;;5053087;28;19925;-87
2022/11/26 07:30:33;;;;;;;;;;;14.40;62.30;;;;;;5045648;28;20375;-87
2022/11/26 07:32:58;;;;;;;;;;;14.30;62.00;;;;;;5073434;28;19922;-88
2022/11/26 07:35:24;;;;;;;;;;;14.30;62.10;;;;;;5072259;28;19912;-87
2022/11/26 07:37:49;;;;;;;;;;;14.30;62.30;;;;;;5061656;28;20011;-88
2022/11/26 07:40:15;;;;;;;;;;;14.40;62.40;;;;;;5051017;28;19919;-87
2022/11/26 07:42:40;;;;;;;;;;;14.30;62.40;;;;;;5069319;28;19916;-88
2022/11/26 07:45:06;;;;;;;;;;;14.30;62.40;;;;;;5065544;28;19920;-87
2022/11/26 07:47:32;;;;;;;;;;;14.40;62.40;;;;;;5041364;28;19928;-87
2022/11/26 07:49:57;;;;;;;;;;;14.40;62.40;;;;;;5050970;28;19912;-88
2022/11/26 07:52:23;;;;;;;;;;;14.40;62.30;;;;;;5068963;28;19969;-88
2022/11/26 07:54:48;;;;;;;;;;;14.40;62.50;;;;;;5044899;28;19928;-89
2022/11/26 07:57:14;;;;;;;;;;;14.40;62.30;;;;;;5049922;28;20046;-87
2022/11/26 07:59:39;;;;;;;;;;;14.30;62.30;;;;;;5051161;28;20457;-86
2022/11/26 08:02:05;;;;;;;;;;;14.40;62.40;;;;;;5051222;28;20485;-87
2022/11/26 08:04:34;;;;;;;;;;;14.40;62.50;;;;;;5053973;28;19916;-89
2022/11/26 08:06:59;;;;;;;;;;;14.40;62.50;;;;;;5070816;28;20061;-88
2022/11/26 08:09:25;;;;;;;;;;;14.40;62.80;;;;;;5059226;28;20015;-88
2022/11/26 08:11:50;;;;;;;;;;;14.50;62.70;;;;;;5054962;28;19912;-87
2022/11/26 08:14:16;;;;;;;;;;;14.50;62.80;;;;;;5079259;28;20034;-87
2022/11/26 08:16:41;;;;;;;;;;;14.60;62.80;;;;;;5071524;28;19915;-86
2022/11/26 08:19:10;;;;;;;;;;;14.60;62.40;;;;;;5063661;28;19966;-86
2022/11/26 08:21:35;;;;;;;;;;;14.60;62.50;;;;;;5051734;28;20731;-87
2022/11/26 08:24:02;;;;;;;;;;;14.60;62.60;;;;;;5059660;28;20424;-87
2022/11/26 08:26:27;;;;;;;;;;;14.60;62.60;;;;;;5050859;28;19993;-88
2022/11/26 08:28:53;;;;;;;;;;;14.60;62.40;;;;;;5062344;28;19982;-87
2022/11/26 08:31:19;;;;;;;;;;;14.60;62.70;;;;;;5075005;28;20316;-89
2022/11/26 08:33:45;;;;;;;;;;;14.70;63.00;;;;;;5053831;28;20008;-89
2022/11/26 08:36:11;;;;;;;;;;;14.80;63.00;;;;;;5068059;28;20370;-88
2022/11/26 08:38:37;;;;;;;;;;;14.90;62.80;;;;;;5068813;28;19921;-87
2022/11/26 08:41:03;;;;;;;;;;;14.90;62.80;;;;;;5066942;28;20002;-87
2022/11/26 08:43:29;;;;;;;;;;;15.00;63.10;;;;;;5083318;28;19916;-86
2022/11/26 08:45:56;;;;;;;;;;;15.10;63.00;;;;;;5032487;28;19924;-88
2022/11/26 08:48:21;;;;;;;;;;;15.10;62.90;;;;;;5063589;28;20692;-87
2022/11/26 08:50:47;;;;;;;;;;;15.10;62.70;;;;;;5052581;28;19912;-87
2022/11/26 08:53:13;;;;;;;;;;;15.10;62.50;;;;;;5082690;28;20014;-87
2022/11/26 08:55:39;;;;;;;;;;;15.10;62.40;;;;;;5073812;28;20069;-88
2022/11/26 08:58:04;;;;;;;;;;;15.00;62.40;;;;;;5067141;28;19920;-87
2022/11/26 09:00:30;;;;;;;;;;;15.00;62.30;;;;;;5035115;28;19916;-87
2022/11/26 09:02:55;;;;;;;;;;;15.00;62.30;;;;;;5042266;28;19927;-87
2022/11/26 09:05:21;;;;;;;;;;;15.00;62.40;;;;;;5057004;28;19920;-87
2022/11/26 09:07:46;;;;;;;;;;;15.00;62.50;;;;;;5040619;28;19940;-88
2022/11/26 09:10:12;;;;;;;;;;;15.00;62.50;;;;;;5070629;28;20015;-87
2022/11/26 09:12:37;;;;;;;;;;;15.00;62.60;;;;;;5062939;28;19927;-87
2022/11/26 09:15:03;;;;;;;;;;;15.00;62.40;;;;;;5084516;28;19920;-87
2022/11/26 09:17:28;;;;;;;;;;;15.00;62.70;;;;;;5082030;28;19920;-90
2022/11/26 09:19:55;;;;;;;;;;;15.00;62.70;;;;;;5072418;28;20260;-87
2022/11/26 09:22:21;;;;;;;;;;;15.10;62.80;;;;;;5081644;28;19912;-86
2022/11/26 09:24:47;;;;;;;;;;;15.20;62.90;;;;;;5061921;28;19912;-87
2022/11/26 09:27:13;;;;;;;;;;;15.30;63.00;;;;;;5066091;28;19935;-87
2022/11/26 09:29:38;;;;;;;;;;;15.40;63.20;;;;;;5052951;28;19912;-86
2022/11/26 09:32:04;;;;;;;;;;;15.50;63.40;;;;;;5072387;28;19912;-87
2022/11/26 09:34:29;;;;;;;;;;;15.70;63.50;;;;;;5069293;28;19920;-88
2022/11/26 09:36:55;;;;;;;;;;;15.80;63.10;;;;;;5074091;28;19912;-88
2022/11/26 09:39:20;;;;;;;;;;;15.80;63.20;;;;;;5059646;28;19933;-89
2022/11/26 09:41:46;;;;;;;;;;;15.80;63.10;;;;;;5050267;28;19967;-88
2022/11/26 09:44:17;;;;;;;;;;;15.90;63.30;;;;;;5037299;28;20014;-87
2022/11/26 09:46:52;;;;;;;;;;;16.00;63.70;;;;;;5033849;28;19932;-87
2022/11/26 09:49:20;;;;;;;;;;;16.20;64.10;;;;;;5052422;28;19920;-87
2022/11/26 09:51:49;;;;;;;;;;;16.40;64.60;;;;;;5051511;28;19916;-88
2022/11/26 09:54:19;;;;;;;;;;;16.70;64.80;;;;;;5071708;28;19923;-87
2022/11/26 09:56:45;;;;;;;;;;;17.00;65.10;;;;;;5075373;28;19924;-87
2022/11/26 09:59:16;;;;;;;;;;;17.30;65.00;;;;;;5081526;28;20023;-87
2022/11/26 10:01:42;;;;;;;;;;;17.50;64.40;;;;;;5054372;28;20023;-87
2022/11/26 10:04:08;;;;;;;;;;;17.80;64.60;;;;;;5064778;28;20035;-87
2022/11/26 10:06:38;;;;;;;;;;;18.00;64.50;;;;;;5051436;28;20330;-88
2022/11/26 10:09:14;;;;;;;;;;;18.20;64.80;;;;;;5050964;28;20283;-88
2022/11/26 10:11:40;;;;;;;;;;;18.40;64.30;;;;;;5052499;28;20335;-88
2022/11/26 10:14:25;;;;;;;;;;;18.70;64.40;;;;;;5051074;28;21526;-87
2022/11/26 10:17:09;;;;;;;;;;;18.90;64.20;;;;;;5071692;28;19920;-89
2022/11/26 10:19:53;;;;;;;;;;;19.10;63.40;;;;;;5062135;28;19920;-87
2022/11/26 10:22:23;;;;;;;;;;;19.30;63.60;;;;;;5076544;28;19916;-88
2022/11/26 10:24:49;;;;;;;;;;;19.50;62.60;;;;;;5061269;28;20455;-88
2022/11/26 10:27:16;;;;;;;;;;;19.50;61.20;;;;;;5084340;28;20326;-88
2022/11/26 10:29:43;;;;;;;;;;;19.50;61.60;;;;;;5051848;28;19916;-89
2022/11/26 10:32:13;;;;;;;;;;;19.60;62.50;;;;;;5069125;28;19919;-88
2022/11/26 10:34:53;;;;;;;;;;;19.80;62.10;;;;;;5053163;28;19920;-88
2022/11/26 10:37:19;;;;;;;;;;;19.90;61.60;;;;;;5085956;28;19940;-88
2022/11/26 10:39:45;;;;;;;;;;;20.00;61.80;;;;;;5055118;28;20029;-88
2022/11/26 10:42:20;;;;;;;;;;;19.90;61.30;;;;;;5069913;28;19913;-88
2022/11/26 10:44:47;;;;;;;;;;;19.90;61.00;;;;;;5071572;28;19923;-88
2022/11/26 10:47:20;;;;;;;;;;;19.80;60.20;;;;;;5066237;28;19920;-88
2022/11/26 10:49:46;;;;;;;;;;;19.70;59.80;;;;;;5074482;28;19959;-88
2022/11/26 10:52:14;;;;;;;;;;;19.60;60.00;;;;;;5084512;28;19951;-88
2022/11/26 10:54:40;;;;;;;;;;;19.50;60.70;;;;;;5054477;28;19919;-88
2022/11/26 10:57:08;;;;;;;;;;;19.30;59.30;;;;;;5071412;28;19913;-87
2022/11/26 10:59:39;;;;;;;;;;;19.30;60.40;;;;;;5063905;28;19924;-88
2022/11/26 11:02:16;;;;;;;;;;;19.20;60.50;;;;;;5032207;28;19913;-86
2022/11/26 11:04:43;;;;;;;;;;;19.10;59.70;;;;;;5054423;28;20547;-88
2022/11/26 11:07:29;;;;;;;;;;;18.90;59.50;;;;;;5056060;28;20500;-88
2022/11/26 11:10:13;;;;;;;;;;;18.80;59.60;;;;;;5069232;28;20291;-89
2022/11/26 11:12:59;;;;;;;;;;;18.80;60.90;;;;;;5060851;28;19974;-87
2022/11/26 11:15:29;;;;;;;;;;;18.90;62.10;;;;;;5046840;28;20434;-87
2022/11/26 11:18:12;;;;;;;;;;;19.20;62.10;;;;;;5039949;28;20401;-87
2022/11/26 11:20:40;;;;;;;;;;;19.40;61.40;;;;;;5029939;28;19913;-88
2022/11/26 11:23:09;;;;;;;;;;;19.50;61.10;;;;;;5043963;28;19921;-88
2022/11/26 11:25:38;;;;;;;;;;;19.70;61.60;;;;;;5043891;28;19934;-88
2022/11/26 11:28:20;;;;;;;;;;;19.80;60.60;;;;;;5052299;28;20063;-89
2022/11/26 11:30:55;;;;;;;;;;;20.00;60.60;;;;;;5048034;28;20713;-88
2022/11/26 11:33:23;;;;;;;;;;;20.00;60.90;;;;;;5046605;28;19920;-89
2022/11/26 11:36:03;;;;;;;;;;;20.00;59.00;;;;;;5053986;28;19918;-88
2022/11/26 11:38:31;;;;;;;;;;;19.90;58.40;;;;;;5043382;28;19921;-90
2022/11/26 11:40:57;;;;;;;;;;;19.80;59.20;;;;;;5068222;28;19923;-88
2022/11/26 11:43:23;;;;;;;;;;;19.80;59.80;;;;;;5049982;28;19920;-90
2022/11/26 11:46:00;;;;;;;;;;;19.80;59.90;;;;;;5065374;28;20015;-88
2022/11/26 11:48:42;;;;;;;;;;;19.80;59.20;;;;;;5081645;28;20647;-88
2022/11/26 11:51:15;;;;;;;;;;;19.50;58.50;;;;;;5049288;28;19919;-88
2022/11/26 11:53:44;;;;;;;;;;;19.30;58.20;;;;;;5066026;28;19927;-90
2022/11/26 11:56:28;;;;;;;;;;;19.10;58.30;;;;;;5055325;28;19920;-88
2022/11/26 11:59:06;;;;;;;;;;;18.90;57.80;;;;;;5050586;28;20000;-88
2022/11/26 12:01:50;;;;;;;;;;;18.70;59.00;;;;;;5050514;28;19915;-88
2022/11/26 12:04:16;;;;;;;;;;;18.60;59.10;;;;;;5056277;28;19931;-89
2022/11/26 12:07:10;;;;;;;;;;;18.40;58.40;;;;;;5059600;28;20275;-89
2022/11/26 12:09:40;;;;;;;;;;;18.20;59.40;;;;;;5049688;28;19924;-90
2022/11/26 12:12:22;;;;;;;;;;;18.10;59.40;;;;;;5049534;28;19919;-88
2022/11/26 12:15:06;;;;;;;;;;;18.00;59.70;;;;;;5065371;28;19921;-88
2022/11/26 12:17:34;;;;;;;;;;;17.90;60.40;;;;;;5041246;28;19920;-89
2022/11/26 12:20:21;;;;;;;;;;;17.80;60.80;;;;;;5063805;28;19913;-87
2022/11/26 12:22:50;;;;;;;;;;;17.80;60.50;;;;;;5078508;28;19920;-89
2022/11/26 12:25:28;;;;;;;;;;;17.80;60.40;;;;;;5076066;28;20339;-86
2022/11/26 12:28:03;;;;;;;;;;;17.70;60.50;;;;;;5076804;28;19933;-89
2022/11/26 12:30:50;;;;;;;;;;;17.70;60.20;;;;;;5049439;28;19946;-89
2022/11/26 12:33:20;;;;;;;;;;;17.50;60.00;;;;;;5069222;28;20050;-87
2022/11/26 12:35:49;;;;;;;;;;;17.50;60.10;;;;;;5065793;28;19912;-87
2022/11/26 12:38:23;;;;;;;;;;;17.40;59.80;;;;;;5036415;28;19921;-88
2022/11/26 12:40:59;;;;;;;;;;;17.30;60.40;;;;;;5067594;28;19918;-87
2022/11/26 12:43:30;;;;;;;;;;;17.30;60.50;;;;;;5067366;28;19924;-88
2022/11/26 12:46:08;;;;;;;;;;;17.30;60.40;;;;;;5073256;28;20352;-87
2022/11/26 12:48:44;;;;;;;;;;;17.40;60.30;;;;;;5085694;28;19932;-88
2022/11/26 12:51:16;;;;;;;;;;;17.30;60.40;;;;;;5053586;28;19912;-87
2022/11/26 12:53:59;;;;;;;;;;;17.30;59.90;;;;;;5085085;28;20007;-89
2022/11/26 12:56:36;;;;;;;;;;;17.30;59.80;;;;;;5049509;28;19987;-88
2022/11/26 12:59:17;;;;;;;;;;;17.30;60.40;;;;;;5052073;28;19928;-89
2022/11/26 13:01:42;;;;;;;;;;;17.30;60.70;;;;;;5034237;28;20024;-88
2022/11/26 13:04:08;;;;;;;;;;;17.40;61.30;;;;;;5052176;28;20035;-88
2022/11/26 13:06:52;;;;;;;;;;;17.50;61.10;;;;;;5062140;28;19921;-88
2022/11/26 13:09:30;;;;;;;;;;;17.60;60.90;;;;;;5081520;28;19929;-88
2022/11/26 13:11:56;;;;;;;;;;;17.60;60.60;;;;;;5057700;28;19912;-89
2022/11/26 13:14:43;;;;;;;;;;;17.60;59.70;;;;;;5082319;28;19920;-88
2022/11/26 13:17:12;;;;;;;;;;;17.60;59.60;;;;;;5057072;28;20367;-87
2022/11/26 13:19:49;;;;;;;;;;;17.60;59.50;;;;;;5074191;28;19919;-89
2022/11/26 13:22:20;;;;;;;;;;;17.60;59.70;;;;;;5058930;28;19920;-87
2022/11/26 13:25:08;;;;;;;;;;;17.50;59.60;;;;;;5061442;28;20286;-89
2022/11/26 13:27:36;;;;;;;;;;;17.50;60.00;;;;;;5066020;28;19929;-89
2022/11/26 13:30:08;;;;;;;;;;;17.50;60.00;;;;;;5049947;28;20383;-89
2022/11/26 13:32:50;;;;;;;;;;;17.60;60.40;;;;;;5059044;28;19924;-90
2022/11/26 13:35:19;;;;;;;;;;;17.60;59.70;;;;;;5047341;28;19912;-89
2022/11/26 13:38:03;;;;;;;;;;;17.60;60.00;;;;;;5052479;28;20371;-87
2022/11/26 13:40:41;;;;;;;;;;;17.60;59.40;;;;;;5070268;28;20537;-87
2022/11/26 13:43:22;;;;;;;;;;;17.50;59.10;;;;;;5083510;28;20496;-88
2022/11/26 13:45:56;;;;;;;;;;;17.40;59.10;;;;;;5070045;28;19921;-86
2022/11/26 13:48:30;;;;;;;;;;;17.30;59.00;;;;;;5065790;28;19935;-89
2022/11/26 13:50:59;;;;;;;;;;;17.20;58.80;;;;;;5052557;28;19912;-86
2022/11/26 13:53:28;;;;;;;;;;;17.10;58.90;;;;;;5086695;28;20365;-87
2022/11/26 13:56:00;;;;;;;;;;;17.00;59.20;;;;;;5064679;28;19917;-88
2022/11/26 13:58:27;;;;;;;;;;;16.90;58.90;;;;;;5070747;28;20070;-87
2022/11/26 14:00:53;;;;;;;;;;;16.80;58.70;;;;;;5052011;28;20384;-88
2022/11/26 14:03:51;;;;;;;;;;;16.70;59.20;;;;;;5053685;28;19921;-88
2022/11/26 14:06:19;;;;;;;;;;;16.70;59.20;;;;;;5011478;28;19913;-87
2022/11/26 14:08:47;;;;;;;;;;;16.60;59.30;;;;;;5068442;28;19975;-88
2022/11/26 14:11:31;;;;;;;;;;;16.50;59.60;;;;;;5071069;28;20015;-89
2022/11/26 14:14:22;;;;;;;;;;;16.50;59.50;;;;;;5072044;28;19928;-88
2022/11/26 14:17:00;;;;;;;;;;;16.40;59.10;;;;;;5052219;28;19912;-89
2022/11/26 14:19:38;;;;;;;;;;;16.30;59.10;;;;;;5053604;28;19931;-88
2022/11/26 14:22:06;;;;;;;;;;;16.30;59.70;;;;;;5048194;28;19924;-88
2022/11/26 14:24:50;;;;;;;;;;;16.30;59.80;;;;;;5051189;28;20494;-89
2022/11/26 14:27:16;;;;;;;;;;;16.30;59.90;;;;;;5037984;28;19920;-86